Time;durP1;ratioP1;P1;durP2;ratioP2;P2;SDS_P1;SDS_P2;PMS_P1;PMS_P2;Temp;Humidity;BMP_temperature;BMP_pressure;BME280_temperature;BME280_humidity;BME280_pressure;Samples;Min_cycle;Max_cycle;Signal;HPM_P1;HPM_P2
2022/07/24 00:00:28;;;;;;;101.82;96.72;;;;;;;;;;5038080;28;20032;-71
2022/07/24 00:02:53;;;;;;;109.55;104.15;;;;;;;;;;5037719;28;20641;-71
2022/07/24 00:05:19;;;;;;;118.32;112.45;;;;;;;;;;5037105;28;20553;-70
2022/07/24 00:07:44;;;;;;;117.03;111.22;;;;;;;;;;5035252;28;20033;-70
2022/07/24 00:10:10;;;;;;;106.43;101.15;;;;;;;;;;5039882;28;20094;-70
2022/07/24 00:12:36;;;;;;;131.20;124.72;;;;;;;;;;5043725;28;20068;-71
2022/07/24 00:15:03;;;;;;;101.55;96.50;;;;;;;;;;5044865;28;20064;-71
2022/07/24 00:17:28;;;;;;;108.38;102.97;;;;;;;;;;5038972;28;20033;-70
2022/07/24 00:19:54;;;;;;;83.57;79.35;;;;;;;;;;5038192;28;20040;-70
2022/07/24 00:22:19;;;;;;;126.45;120.15;;;;;;;;;;5037083;28;20485;-71
2022/07/24 00:24:44;;;;;;;111.07;105.57;;;;;;;;;;5038136;28;20498;-71
2022/07/24 00:27:10;;;;;;;101.93;96.80;;;;;;;;;;5040449;28;20028;-70
2022/07/24 00:29:35;;;;;;;93.18;88.53;;;;;;;;;;5042227;28;20033;-71
2022/07/24 00:32:00;;;;;;;64.55;61.25;;;;;;;;;;5042463;28;20033;-74
2022/07/24 00:34:26;;;;;;;60.35;57.20;;;;;;;;;;5041488;28;20034;-73
2022/07/24 00:36:51;;;;;;;49.97;47.30;;;;;;;;;;5040298;28;20147;-73
2022/07/24 00:39:16;;;;;;;52.08;49.40;;;;;;;;;;5040858;28;20029;-73
2022/07/24 00:41:42;;;;;;;46.50;44.10;;;;;;;;;;5043965;28;20029;-73
2022/07/24 00:44:10;;;;;;;52.13;49.42;;;;;;;;;;5044859;28;20033;-73
2022/07/24 00:46:37;;;;;;;60.92;57.83;;;;;;;;;;5038915;28;20035;-72
2022/07/24 00:49:08;;;;;;;86.85;82.50;;;;;;;;;;5039266;28;20270;-74
2022/07/24 00:51:34;;;;;;;118.03;112.20;;;;;;;;;;5041431;28;20098;-73
2022/07/24 00:54:03;;;;;;;116.15;110.38;;;;;;;;;;5041962;28;20029;-73
2022/07/24 00:56:29;;;;;;;75.68;71.82;;;;;;;;;;5041884;28;20037;-73
2022/07/24 00:58:54;;;;;;;89.72;85.22;;;;;;;;;;5041852;28;20476;-73
2022/07/24 01:01:19;;;;;;;92.22;87.60;;;;;;;;;;5039970;28;20033;-73
2022/07/24 01:03:45;;;;;;;103.60;98.38;;;;;;;;;;5040255;28;20086;-73
2022/07/24 01:06:11;;;;;;;105.57;100.28;;;;;;;;;;5038268;28;20059;-73
2022/07/24 01:08:37;;;;;;;75.68;71.80;;;;;;;;;;5035118;28;20091;-73
2022/07/24 01:11:04;;;;;;;88.47;84.00;;;;;;;;;;5037875;28;20801;-73
2022/07/24 01:13:31;;;;;;;85.95;81.65;;;;;;;;;;5041231;28;20037;-74
2022/07/24 01:15:57;;;;;;;62.60;59.40;;;;;;;;;;5045447;28;20024;-74
2022/07/24 01:18:23;;;;;;;123.75;117.60;;;;;;;;;;5040249;28;20053;-74
2022/07/24 01:20:50;;;;;;;111.03;105.47;;;;;;;;;;5040713;28;20556;-73
2022/07/24 01:23:15;;;;;;;109.38;103.88;;;;;;;;;;5040734;28;20029;-73
2022/07/24 01:25:41;;;;;;;88.85;84.40;;;;;;;;;;5038008;28;20040;-73
2022/07/24 01:28:07;;;;;;;142.10;135.02;;;;;;;;;;5035371;28;20534;-73
2022/07/24 01:30:32;;;;;;;138.18;131.27;;;;;;;;;;5036611;28;20029;-73
2022/07/24 01:32:59;;;;;;;141.02;134.02;;;;;;;;;;5033823;28;20038;-72
2022/07/24 01:35:24;;;;;;;112.90;107.25;;;;;;;;;;5036533;28;20033;-72
2022/07/24 01:37:53;;;;;;;120.38;114.38;;;;;;;;;;5039206;28;20048;-72
2022/07/24 01:40:20;;;;;;;117.85;111.97;;;;;;;;;;5038555;28;20049;-73
2022/07/24 01:42:45;;;;;;;123.45;117.28;;;;;;;;;;5038362;28;20115;-72
2022/07/24 01:45:10;;;;;;;95.90;91.10;;;;;;;;;;5038146;28;20112;-72
2022/07/24 01:47:36;;;;;;;83.63;79.35;;;;;;;;;;5038840;28;20051;-72
2022/07/24 01:50:02;;;;;;;89.57;85.03;;;;;;;;;;5038960;28;20107;-72
2022/07/24 01:52:27;;;;;;;81.47;77.38;;;;;;;;;;5038304;28;20041;-71
2022/07/24 01:54:53;;;;;;;67.55;64.15;;;;;;;;;;5037756;28;20062;-71
2022/07/24 01:57:19;;;;;;;56.60;53.65;;;;;;;;;;5041479;28;20036;-72
2022/07/24 01:59:44;;;;;;;46.25;43.83;;;;;;;;;;5043218;28;20041;-72
2022/07/24 02:02:09;;;;;;;61.35;58.22;;;;;;;;;;5039053;28;20029;-72
2022/07/24 02:04:34;;;;;;;54.67;51.88;;;;;;;;;;5036760;28;20098;-72
2022/07/24 02:07:00;;;;;;;52.60;49.90;;;;;;;;;;5039179;28;20094;-72
2022/07/24 02:09:26;;;;;;;46.20;43.78;;;;;;;;;;5036277;28;20031;-72
2022/07/24 02:11:52;;;;;;;43.50;41.28;;;;;;;;;;5036023;28;20043;-72
2022/07/24 02:14:17;;;;;;;53.25;50.50;;;;;;;;;;5037000;28;20063;-71
2022/07/24 02:16:43;;;;;;;50.28;47.67;;;;;;;;;;5038361;28;20057;-71
2022/07/24 02:19:08;;;;;;;44.03;41.75;;;;;;;;;;5037752;28;20051;-71
2022/07/24 02:21:34;;;;;;;45.88;43.53;;;;;;;;;;5037025;28;20045;-71
2022/07/24 02:23:59;;;;;;;51.38;48.78;;;;;;;;;;5038881;28;20040;-72
2022/07/24 02:26:24;;;;;;;51.88;49.22;;;;;;;;;;5038952;28;20098;-71
2022/07/24 02:28:50;;;;;;;56.83;53.92;;;;;;;;;;5035172;28;20364;-71
2022/07/24 02:31:16;;;;;;;45.80;43.42;;;;;;;;;;5038006;28;20032;-71
2022/07/24 02:33:41;;;;;;;50.20;47.63;;;;;;;;;;5037654;28;20044;-70
2022/07/24 02:36:07;;;;;;;49.25;46.70;;;;;;;;;;5035835;28;20537;-70
2022/07/24 02:38:32;;;;;;;45.83;43.47;;;;;;;;;;5036475;28;20041;-70
2022/07/24 02:40:58;;;;;;;37.97;36.00;;;;;;;;;;5036912;28;20116;-70
2022/07/24 02:43:23;;;;;;;32.92;31.17;;;;;;;;;;5033756;28;20033;-70
2022/07/24 02:45:48;;;;;;;35.88;34.05;;;;;;;;;;5035455;28;20132;-70
2022/07/24 02:48:14;;;;;;;37.00;35.10;;;;;;;;;;5036955;28;20025;-69
2022/07/24 02:50:39;;;;;;;33.05;31.25;;;;;;;;;;5037223;28;20039;-69
2022/07/24 02:53:05;;;;;;;33.85;32.10;;;;;;;;;;5034474;28;20033;-70
2022/07/24 02:55:31;;;;;;;35.70;33.83;;;;;;;;;;5039089;28;20115;-70
2022/07/24 02:57:57;;;;;;;35.97;34.05;;;;;;;;;;5038019;28;20524;-69
2022/07/24 03:00:22;;;;;;;37.28;34.40;;;;;;;;;;5040514;28;20033;-69
2022/07/24 03:02:48;;;;;;;34.25;32.38;;;;;;;;;;5038396;28;20040;-69
2022/07/24 03:05:14;;;;;;;39.67;37.63;;;;;;;;;;5040359;28;20105;-69
2022/07/24 03:07:40;;;;;;;37.33;35.38;;;;;;;;;;5037736;28;20069;-69
2022/07/24 03:10:08;;;;;;;34.33;32.47;;;;;;;;;;5042464;28;20052;-69
2022/07/24 03:12:33;;;;;;;38.45;36.47;;;;;;;;;;5038612;28;20025;-69
2022/07/24 03:14:59;;;;;;;37.97;36.03;;;;;;;;;;5039433;28;20048;-69
2022/07/24 03:17:24;;;;;;;35.47;33.63;;;;;;;;;;5037161;28;20064;-69
2022/07/24 03:19:50;;;;;;;37.80;35.80;;;;;;;;;;5038924;28;20099;-70
2022/07/24 03:22:15;;;;;;;34.22;32.42;;;;;;;;;;5038261;28;20029;-69
2022/07/24 03:24:41;;;;;;;36.40;34.50;;;;;;;;;;5043106;28;20041;-69
2022/07/24 03:27:06;;;;;;;30.13;28.52;;;;;;;;;;5040640;28;20470;-69
2022/07/24 03:29:31;;;;;;;30.95;29.33;;;;;;;;;;5037764;28;20617;-69
2022/07/24 03:31:57;;;;;;;35.50;33.67;;;;;;;;;;5025150;28;20017;-69
2022/07/24 03:34:22;;;;;;;40.15;38.05;;;;;;;;;;5038950;28;20021;-70
2022/07/24 03:36:47;;;;;;;35.90;34.00;;;;;;;;;;5033580;28;20413;-69
2022/07/24 03:39:13;;;;;;;40.45;38.35;;;;;;;;;;5039259;28;20028;-69
2022/07/24 03:41:38;;;;;;;41.40;39.30;;;;;;;;;;5041143;28;20072;-69
2022/07/24 03:44:04;;;;;;;38.08;36.08;;;;;;;;;;5038106;28;20041;-70
2022/07/24 03:46:29;;;;;;;41.83;39.67;;;;;;;;;;5036576;28;20514;-70
2022/07/24 03:48:55;;;;;;;42.80;40.60;;;;;;;;;;5033935;28;20037;-70
2022/07/24 03:51:21;;;;;;;42.97;40.67;;;;;;;;;;5036876;28;20029;-70
2022/07/24 03:53:47;;;;;;;41.22;38.40;;;;;;;;;;5039863;28;20036;-71
2022/07/24 03:56:13;;;;;;;38.33;36.33;;;;;;;;;;5036024;28;20055;-71
2022/07/24 03:58:38;;;;;;;41.70;39.55;;;;;;;;;;5038101;28;20133;-70
2022/07/24 04:01:04;;;;;;;42.80;40.58;;;;;;;;;;5038539;28;20205;-70
2022/07/24 04:03:29;;;;;;;42.05;39.85;;;;;;;;;;5036364;28;20179;-70
2022/07/24 04:05:54;;;;;;;45.10;42.78;;;;;;;;;;5035137;28;20034;-64
2022/07/24 04:08:20;;;;;;;45.55;42.20;;;;;;;;;;5038148;28;20033;-64
2022/07/24 04:10:45;;;;;;;43.38;40.97;;;;;;;;;;5040719;28;20095;-64
2022/07/24 04:13:10;;;;;;;34.55;32.75;;;;;;;;;;5038231;28;20029;-64
2022/07/24 04:15:36;;;;;;;34.22;32.33;;;;;;;;;;5044092;28;20036;-64
2022/07/24 04:18:01;;;;;;;35.63;33.72;;;;;;;;;;5039588;28;20059;-64
2022/07/24 04:20:26;;;;;;;27.08;25.65;;;;;;;;;;5034356;28;20110;-64
2022/07/24 04:22:52;;;;;;;31.95;30.27;;;;;;;;;;5036621;28;20029;-64
2022/07/24 04:25:18;;;;;;;31.75;30.10;;;;;;;;;;5034042;28;20141;-64
2022/07/24 04:27:43;;;;;;;31.73;30.08;;;;;;;;;;5041203;28;20095;-64
2022/07/24 04:30:10;;;;;;;32.85;31.02;;;;;;;;;;5038571;28;20032;-64
2022/07/24 04:32:36;;;;;;;32.63;30.95;;;;;;;;;;5038904;28;20052;-70
2022/07/24 04:35:03;;;;;;;26.63;25.17;;;;;;;;;;5042762;28;20029;-70
2022/07/24 04:37:28;;;;;;;26.23;24.83;;;;;;;;;;5035499;28;20038;-70
2022/07/24 04:39:53;;;;;;;25.92;24.52;;;;;;;;;;5037550;28;20055;-70
2022/07/24 04:42:19;;;;;;;34.08;32.30;;;;;;;;;;5033359;28;20055;-70
2022/07/24 04:44:44;;;;;;;33.40;31.60;;;;;;;;;;5037080;28;20140;-64
2022/07/24 04:47:09;;;;;;;45.55;43.22;;;;;;;;;;5034445;28;20037;-65
2022/07/24 04:49:35;;;;;;;31.85;30.15;;;;;;;;;;5038434;28;20043;-65
2022/07/24 04:52:00;;;;;;;39.88;37.63;;;;;;;;;;5031433;28;20025;-66
2022/07/24 04:54:25;;;;;;;30.05;28.45;;;;;;;;;;5035491;28;20033;-66
2022/07/24 04:56:51;;;;;;;35.42;33.60;;;;;;;;;;5040619;28;20037;-66
2022/07/24 04:59:16;;;;;;;31.50;29.80;;;;;;;;;;5037527;28;20029;-72
2022/07/24 05:01:41;;;;;;;37.35;34.88;;;;;;;;;;5036888;28;20078;-74
2022/07/24 05:04:07;;;;;;;36.58;34.63;;;;;;;;;;5041245;28;20107;-72
2022/07/24 05:06:32;;;;;;;33.50;31.80;;;;;;;;;;5040897;28;20032;-70
2022/07/24 05:08:58;;;;;;;32.42;30.73;;;;;;;;;;5037015;28;20121;-72
2022/07/24 05:11:23;;;;;;;38.28;36.28;;;;;;;;;;5040867;28;20025;-73
2022/07/24 05:13:48;;;;;;;42.13;39.95;;;;;;;;;;5040319;28;20560;-71
2022/07/24 05:16:14;;;;;;;39.05;37.05;;;;;;;;;;5039205;28;20032;-71
2022/07/24 05:18:39;;;;;;;44.60;42.30;;;;;;;;;;5037649;28;20384;-74
2022/07/24 05:21:05;;;;;;;36.03;34.13;;;;;;;;;;5039591;28;20040;-73
2022/07/24 05:23:30;;;;;;;41.97;39.80;;;;;;;;;;5039003;28;20025;-74
2022/07/24 05:25:56;;;;;;;43.38;41.17;;;;;;;;;;5036628;28;20025;-75
2022/07/24 05:28:21;;;;;;;85.47;81.25;;;;;;;;;;5038002;28;20374;-75
2022/07/24 05:30:46;;;;;;;56.35;53.50;;;;;;;;;;5040144;28;20584;-75
2022/07/24 05:33:12;;;;;;;57.00;54.10;;;;;;;;;;5041677;28;20025;-75
2022/07/24 05:35:37;;;;;;;74.72;70.97;;;;;;;;;;5042129;28;20474;-73
2022/07/24 05:38:02;;;;;;;56.75;53.88;;;;;;;;;;5037147;28;20406;-75
2022/07/24 05:40:28;;;;;;;68.35;64.93;;;;;;;;;;5041908;28;20039;-75
2022/07/24 05:42:53;;;;;;;65.63;62.28;;;;;;;;;;5041525;28;20029;-75
2022/07/24 05:45:18;;;;;;;65.78;62.47;;;;;;;;;;5041786;28;20029;-75
2022/07/24 05:47:44;;;;;;;107.85;102.38;;;;;;;;;;5039837;28;20039;-75
2022/07/24 05:50:11;;;;;;;116.47;110.68;;;;;;;;;;5040083;28;20107;-75
2022/07/24 05:52:37;;;;;;;102.97;97.82;;;;;;;;;;5044539;28;20041;-75
2022/07/24 05:55:03;;;;;;;99.70;94.75;;;;;;;;;;5037893;28;20029;-75
2022/07/24 05:57:29;;;;;;;105.70;100.47;;;;;;;;;;5037224;28;20040;-75
2022/07/24 05:59:54;;;;;;;116.32;110.55;;;;;;;;;;5038482;28;20085;-75
2022/07/24 06:02:20;;;;;;;116.75;110.93;;;;;;;;;;5042077;28;20045;-73
2022/07/24 06:04:45;;;;;;;108.10;102.72;;;;;;;;;;5041644;28;20029;-75
2022/07/24 06:07:11;;;;;;;114.07;108.40;;;;;;;;;;5041402;28;20025;-76
2022/07/24 06:09:37;;;;;;;82.72;78.63;;;;;;;;;;5042225;28;20562;-75
2022/07/24 06:12:03;;;;;;;90.35;85.88;;;;;;;;;;5040316;28;20033;-75
2022/07/24 06:14:29;;;;;;;107.25;101.95;;;;;;;;;;5042102;28;20041;-76
2022/07/24 06:16:55;;;;;;;93.75;88.93;;;;;;;;;;5043138;28;20037;-74
2022/07/24 06:19:20;;;;;;;120.38;114.40;;;;;;;;;;5036831;28;20041;-73
2022/07/24 06:21:45;;;;;;;95.18;90.43;;;;;;;;;;5041804;28;20036;-75
2022/07/24 06:24:11;;;;;;;130.82;124.30;;;;;;;;;;5038386;28;20029;-75
2022/07/24 06:26:36;;;;;;;141.20;133.95;;;;;;;;;;5041297;28;20140;-75
2022/07/24 06:29:02;;;;;;;60.78;57.72;;;;;;;;;;5034195;28;20108;-74
2022/07/24 06:31:27;;;;;;;104.63;99.40;;;;;;;;;;5035175;28;20065;-73
2022/07/24 06:33:52;;;;;;;126.38;120.07;;;;;;;;;;5037046;28;20040;-73
2022/07/24 06:36:18;;;;;;;124.93;118.68;;;;;;;;;;5040102;28;20060;-74
2022/07/24 06:38:43;;;;;;;120.65;114.57;;;;;;;;;;5038092;28;20485;-72
2022/07/24 06:41:08;;;;;;;144.75;137.50;;;;;;;;;;5040712;28;20022;-72
2022/07/24 06:43:34;;;;;;;132.95;126.25;;;;;;;;;;5036763;28;20036;-73
2022/07/24 06:45:59;;;;;;;204.68;194.50;;;;;;;;;;5040851;28;20044;-74
2022/07/24 06:48:24;;;;;;;165.15;156.80;;;;;;;;;;5038459;28;20466;-72
2022/07/24 06:50:50;;;;;;;96.50;91.63;;;;;;;;;;5038526;28;20033;-72
2022/07/24 06:53:15;;;;;;;197.63;187.73;;;;;;;;;;5040729;28;20826;-72
2022/07/24 06:55:40;;;;;;;177.13;168.23;;;;;;;;;;5038088;28;20033;-73
2022/07/24 06:58:06;;;;;;;113.45;107.78;;;;;;;;;;5037819;28;20407;-73
2022/07/24 07:00:31;;;;;;;186.95;177.57;;;;;;;;;;5036746;28;20387;-73
2022/07/24 07:02:56;;;;;;;164.10;155.85;;;;;;;;;;5038737;28;20087;-72
2022/07/24 07:05:23;;;;;;;165.93;157.60;;;;;;;;;;5038843;28;20024;-73
2022/07/24 07:07:49;;;;;;;194.10;184.32;;;;;;;;;;5038523;28;20143;-72
2022/07/24 07:10:14;;;;;;;186.75;177.20;;;;;;;;;;5036073;28;20211;-72
2022/07/24 07:12:40;;;;;;;180.52;171.43;;;;;;;;;;5039407;28;20473;-72
2022/07/24 07:15:05;;;;;;;163.27;155.07;;;;;;;;;;5038890;28;20120;-72
2022/07/24 07:17:31;;;;;;;159.60;151.60;;;;;;;;;;5035883;28;20061;-70
2022/07/24 07:19:56;;;;;;;179.32;170.32;;;;;;;;;;5037318;28;20036;-72
2022/07/24 07:22:21;;;;;;;134.68;127.80;;;;;;;;;;5039240;28;20040;-71
2022/07/24 07:24:47;;;;;;;113.50;107.70;;;;;;;;;;5036419;28;20029;-73
2022/07/24 07:27:12;;;;;;;155.15;147.45;;;;;;;;;;5037878;28;20033;-71
2022/07/24 07:29:37;;;;;;;144.07;136.85;;;;;;;;;;5036441;28;20049;-71
2022/07/24 07:32:03;;;;;;;144.63;137.40;;;;;;;;;;5034035;28;20119;-71
2022/07/24 07:34:28;;;;;;;92.18;87.53;;;;;;;;;;5037814;28;20025;-71
2022/07/24 07:36:54;;;;;;;97.00;92.10;;;;;;;;;;5035481;28;20047;-72
2022/07/24 07:39:19;;;;;;;89.22;84.75;;;;;;;;;;5036208;28;20094;-71
2022/07/24 07:41:45;;;;;;;87.72;83.30;;;;;;;;;;5036539;28;20063;-70
2022/07/24 07:44:10;;;;;;;106.63;101.30;;;;;;;;;;5036336;28;20036;-70
2022/07/24 07:46:35;;;;;;;133.68;126.97;;;;;;;;;;5038491;28;20056;-71
2022/07/24 07:49:01;;;;;;;103.85;98.70;;;;;;;;;;5042750;28;20040;-71
2022/07/24 07:51:26;;;;;;;117.82;111.95;;;;;;;;;;5041754;28;20036;-70
2022/07/24 07:53:51;;;;;;;152.52;144.93;;;;;;;;;;5040191;28;20140;-72
2022/07/24 07:56:17;;;;;;;141.48;134.45;;;;;;;;;;5038000;28;20028;-71
2022/07/24 07:58:42;;;;;;;135.23;128.52;;;;;;;;;;5040976;28;20028;-72
2022/07/24 08:01:07;;;;;;;142.35;135.25;;;;;;;;;;5037478;28;20037;-71
2022/07/24 08:03:33;;;;;;;106.93;101.53;;;;;;;;;;5038489;28;20045;-72
2022/07/24 08:06:00;;;;;;;147.27;139.95;;;;;;;;;;5038377;28;20155;-72
2022/07/24 08:08:25;;;;;;;160.93;152.93;;;;;;;;;;5041253;28;20379;-72
2022/07/24 08:10:50;;;;;;;159.77;151.93;;;;;;;;;;5041824;28;20071;-72
2022/07/24 08:13:17;;;;;;;158.23;150.40;;;;;;;;;;5041151;28;20031;-72
2022/07/24 08:15:44;;;;;;;154.55;146.88;;;;;;;;;;5037624;28;20095;-71
2022/07/24 08:18:10;;;;;;;159.15;151.35;;;;;;;;;;5036577;28;20037;-73
2022/07/24 08:20:36;;;;;;;141.95;134.90;;;;;;;;;;5040143;28;20025;-72
2022/07/24 08:23:01;;;;;;;138.25;131.43;;;;;;;;;;5041847;28;20083;-71
2022/07/24 08:25:27;;;;;;;147.07;139.80;;;;;;;;;;5039124;28;20102;-71
2022/07/24 08:27:52;;;;;;;153.82;146.05;;;;;;;;;;5038239;28;20040;-72
2022/07/24 08:30:18;;;;;;;131.50;125.00;;;;;;;;;;5037755;28;20441;-70
2022/07/24 08:32:43;;;;;;;222.40;211.50;;;;;;;;;;5042190;28;20634;-66
2022/07/24 08:35:09;;;;;;;230.00;218.77;;;;;;;;;;5039356;28;20029;-66
2022/07/24 08:37:39;;;;;;;330.15;313.45;;;;;;;;;;5043952;28;20094;-66
2022/07/24 08:40:06;;;;;;;194.70;185.15;;;;;;;;;;5044604;28;20044;-65
2022/07/24 08:42:32;;;;;;;250.38;237.85;;;;;;;;;;5046196;28;20053;-66
2022/07/24 08:44:58;;;;;;;314.95;299.25;;;;;;;;;;5042468;28;20064;-71
2022/07/24 08:47:25;;;;;;;489.48;462.58;;;;;;;;;;5043333;28;20083;-72
2022/07/24 08:49:53;;;;;;;411.48;390.13;;;;;;;;;;5040416;28;20084;-72
2022/07/24 08:52:21;;;;;;;366.70;347.85;;;;;;;;;;5039621;28;20082;-72
2022/07/24 08:54:47;;;;;;;307.63;292.33;;;;;;;;;;5041705;28;20037;-71
2022/07/24 08:57:12;;;;;;;445.27;421.80;;;;;;;;;;5039278;28;20099;-71
2022/07/24 08:59:38;;;;;;;461.40;437.10;;;;;;;;;;5036085;28;20032;-71
2022/07/24 09:02:03;;;;;;;453.58;429.83;;;;;;;;;;5052700;28;20563;-72
2022/07/24 09:04:39;;;;;;;391.48;371.55;;;;;;;;;;5043144;28;20037;-71
2022/07/24 09:07:10;;;;;;;421.73;400.08;;;;;;;;;;5041414;28;20105;-71
2022/07/24 09:09:40;;;;;;;381.40;362.08;;;;;;;;;;5038994;28;20078;-72
2022/07/24 09:12:16;;;;;;;367.45;348.92;;;;;;;;;;5039329;28;20529;-66
2022/07/24 09:14:47;;;;;;;335.00;318.30;;;;;;;;;;5043298;28;20044;-72
2022/07/24 09:17:16;;;;;;;398.90;378.67;;;;;;;;;;5039973;28;20053;-72
2022/07/24 09:19:49;;;;;;;419.65;398.13;;;;;;;;;;5041553;28;20107;-71
2022/07/24 09:22:24;;;;;;;396.85;376.67;;;;;;;;;;5042127;28;20089;-71
2022/07/24 09:25:16;;;;;;;367.88;349.48;;;;;;;;;;5040261;28;20482;-72
2022/07/24 09:27:58;;;;;;;353.98;336.30;;;;;;;;;;5040808;28;20048;-72
2022/07/24 09:30:25;;;;;;;344.60;327.40;;;;;;;;;;5040760;28;20726;-72
2022/07/24 09:32:53;;;;;;;356.40;338.58;;;;;;;;;;5042562;28;20124;-66
2022/07/24 09:35:22;;;;;;;350.17;332.58;;;;;;;;;;5045610;28;20033;-72
2022/07/24 09:37:53;;;;;;;353.43;335.83;;;;;;;;;;5041903;28;20466;-72
2022/07/24 09:40:19;;;;;;;332.70;316.10;;;;;;;;;;5043386;28;20295;-66
2022/07/24 09:42:45;;;;;;;307.35;292.17;;;;;;;;;;5039402;28;20067;-66
2022/07/24 09:45:11;;;;;;;297.77;283.10;;;;;;;;;;5042459;28;20024;-66
2022/07/24 09:47:37;;;;;;;327.40;311.10;;;;;;;;;;5042024;28;20061;-67
2022/07/24 09:50:16;;;;;;;333.00;316.20;;;;;;;;;;5041887;28;20625;-66
2022/07/24 09:52:43;;;;;;;350.30;332.73;;;;;;;;;;5040521;28;20044;-66
2022/07/24 09:55:24;;;;;;;374.98;356.20;;;;;;;;;;5041749;28;20086;-70
2022/07/24 09:57:49;;;;;;;310.08;294.83;;;;;;;;;;5043137;28;20480;-70
2022/07/24 10:00:16;;;;;;;331.50;315.10;;;;;;;;;;5040444;28;20029;-71
2022/07/24 10:02:44;;;;;;;265.98;252.93;;;;;;;;;;5042815;28;20478;-71
2022/07/24 10:05:11;;;;;;;290.95;276.70;;;;;;;;;;5040334;28;20470;-71
2022/07/24 10:07:37;;;;;;;269.55;256.23;;;;;;;;;;5038048;28;20043;-72
2022/07/24 10:10:03;;;;;;;266.10;253.00;;;;;;;;;;5042906;28;20033;-72
2022/07/24 10:12:29;;;;;;;301.40;286.55;;;;;;;;;;5038596;28;20116;-71
2022/07/24 10:14:58;;;;;;;256.27;243.68;;;;;;;;;;5038061;28;20033;-71
2022/07/24 10:18:06;;;;;;;247.50;235.27;;;;;;;;;;5039102;28;20338;-72
2022/07/24 10:20:40;;;;;;;274.13;260.67;;;;;;;;;;5030195;28;20072;-71
2022/07/24 10:23:06;;;;;;;271.42;258.17;;;;;;;;;;5042048;28;20522;-70
2022/07/24 10:26:04;;;;;;;267.92;254.75;;;;;;;;;;5038974;28;20116;-70
2022/07/24 10:28:42;;;;;;;259.10;246.35;;;;;;;;;;5038631;28;20111;-71
2022/07/24 10:31:13;;;;;;;266.25;253.15;;;;;;;;;;5041481;28;20436;-70
2022/07/24 10:33:41;;;;;;;287.13;272.77;;;;;;;;;;5039298;28;20071;-70
2022/07/24 10:36:21;;;;;;;243.85;231.90;;;;;;;;;;5039473;28;20040;-73
2022/07/24 10:39:00;;;;;;;253.15;240.65;;;;;;;;;;5038740;28;20032;-68
2022/07/24 10:41:26;;;;;;;238.00;226.37;;;;;;;;;;5040022;28;20220;-69
2022/07/24 10:44:12;;;;;;;226.10;214.93;;;;;;;;;;5037724;28;20322;-68
2022/07/24 10:46:57;;;;;;;221.27;210.38;;;;;;;;;;5038181;28;20104;-70
2022/07/24 10:49:49;;;;;;;220.32;209.45;;;;;;;;;;5037039;28;20037;-69
2022/07/24 10:52:30;;;;;;;207.55;197.25;;;;;;;;;;5037848;28;20056;-69
2022/07/24 10:55:23;;;;;;;243.93;231.93;;;;;;;;;;5054656;28;20550;-69
2022/07/24 10:58:00;;;;;;;219.38;208.50;;;;;;;;;;5038501;28;20086;-68
2022/07/24 11:00:34;;;;;;;220.93;210.00;;;;;;;;;;5039177;28;20089;-67
2022/07/24 11:03:08;;;;;;;184.13;174.98;;;;;;;;;;5040220;28;20063;-67
2022/07/24 11:05:38;;;;;;;187.88;178.55;;;;;;;;;;5040581;28;20059;-67
2022/07/24 11:08:16;;;;;;;173.63;165.00;;;;;;;;;;5038200;28;20079;-66
2022/07/24 11:10:52;;;;;;;204.55;194.45;;;;;;;;;;5042569;28;20071;-68
2022/07/24 11:13:32;;;;;;;176.50;167.63;;;;;;;;;;5042897;28;20072;-67
2022/07/24 11:16:36;;;;;;;172.20;163.50;;;;;;;;;;5037087;28;20163;-68
2022/07/24 11:19:01;;;;;;;204.30;194.07;;;;;;;;;;5033274;28;20106;-70
2022/07/24 11:21:35;;;;;;;182.80;173.52;;;;;;;;;;5032374;28;20497;-69
2022/07/24 11:24:27;;;;;;;178.13;169.15;;;;;;;;;;5032709;28;20020;-66
2022/07/24 11:26:55;;;;;;;193.07;183.32;;;;;;;;;;5039891;28;20079;-66
2022/07/24 11:29:27;;;;;;;168.68;160.15;;;;;;;;;;5048817;28;20017;-67
2022/07/24 11:32:07;;;;;;;195.45;185.45;;;;;;;;;;5047511;28;20037;-66
2022/07/24 11:34:34;;;;;;;158.35;150.38;;;;;;;;;;5039993;28;20076;-66
2022/07/24 11:37:00;;;;;;;168.13;159.50;;;;;;;;;;5040794;28;20040;-66
2022/07/24 11:39:33;;;;;;;183.05;173.77;;;;;;;;;;5037650;28;20390;-66
2022/07/24 11:42:04;;;;;;;194.25;184.40;;;;;;;;;;5043527;28;20127;-67
2022/07/24 11:44:44;;;;;;;174.57;165.68;;;;;;;;;;5036734;28;20031;-66
2022/07/24 11:47:15;;;;;;;182.15;172.85;;;;;;;;;;5040246;28;20032;-67
2022/07/24 11:49:46;;;;;;;172.70;163.88;;;;;;;;;;5039951;28;20425;-70
2022/07/24 11:52:19;;;;;;;185.40;176.02;;;;;;;;;;5040691;28;20668;-67
2022/07/24 11:54:46;;;;;;;164.13;155.75;;;;;;;;;;5042538;28;21778;-67
2022/07/24 11:57:26;;;;;;;207.98;197.52;;;;;;;;;;5043537;28;20530;-67
2022/07/24 11:59:53;;;;;;;213.10;202.32;;;;;;;;;;5041798;28;20047;-68
2022/07/24 12:02:22;;;;;;;196.93;187.07;;;;;;;;;;5047880;28;20662;-67
2022/07/24 12:04:49;;;;;;;186.82;177.38;;;;;;;;;;5047492;28;20045;-67
2022/07/24 12:07:18;;;;;;;168.82;160.35;;;;;;;;;;5043578;28;20026;-68
2022/07/24 12:09:49;;;;;;;172.50;163.90;;;;;;;;;;5040932;28;20056;-68
2022/07/24 12:12:25;;;;;;;169.77;161.25;;;;;;;;;;5049050;28;20026;-68
2022/07/24 12:14:53;;;;;;;148.25;140.70;;;;;;;;;;5043024;28;20063;-68
2022/07/24 12:17:19;;;;;;;147.75;140.27;;;;;;;;;;5043491;28;20052;-68
2022/07/24 12:19:55;;;;;;;137.27;130.35;;;;;;;;;;5047193;28;20036;-68
2022/07/24 12:22:22;;;;;;;158.02;150.10;;;;;;;;;;5044278;28;20290;-67
2022/07/24 12:24:49;;;;;;;146.52;139.18;;;;;;;;;;5043813;28;20029;-68
2022/07/24 12:27:33;;;;;;;151.93;144.32;;;;;;;;;;5047385;28;20030;-67
2022/07/24 12:29:59;;;;;;;139.07;132.10;;;;;;;;;;5046978;28;20086;-68
2022/07/24 12:32:26;;;;;;;139.02;132.07;;;;;;;;;;5043651;28;20025;-68
2022/07/24 12:34:52;;;;;;;132.07;125.50;;;;;;;;;;5042562;28;20041;-67
2022/07/24 12:37:19;;;;;;;140.05;133.07;;;;;;;;;;5045367;28;20030;-68
2022/07/24 12:39:49;;;;;;;115.20;109.40;;;;;;;;;;5045701;28;20039;-69
2022/07/24 12:42:15;;;;;;;115.68;109.93;;;;;;;;;;5041912;28;20021;-68
2022/07/24 12:44:43;;;;;;;107.63;102.13;;;;;;;;;;5045425;28;20738;-69
2022/07/24 12:47:09;;;;;;;113.25;107.63;;;;;;;;;;5051843;28;20399;-69
2022/07/24 12:49:46;;;;;;;117.53;111.72;;;;;;;;;;5046783;28;20025;-70
2022/07/24 12:52:28;;;;;;;142.25;135.18;;;;;;;;;;5044630;28;20036;-69
2022/07/24 12:54:53;;;;;;;133.15;126.55;;;;;;;;;;5043011;28;20635;-70
2022/07/24 12:57:23;;;;;;;128.32;121.70;;;;;;;;;;5043376;28;20195;-69
2022/07/24 12:59:50;;;;;;;124.05;117.78;;;;;;;;;;5041563;28;20107;-71
2022/07/24 13:02:23;;;;;;;129.70;123.20;;;;;;;;;;5045229;28;20039;-70
2022/07/24 13:04:53;;;;;;;119.45;113.55;;;;;;;;;;5045180;28;20025;-71
2022/07/24 13:07:22;;;;;;;106.28;101.05;;;;;;;;;;5041951;28;20048;-71
2022/07/24 13:09:48;;;;;;;109.10;103.70;;;;;;;;;;5041580;28;20040;-70
2022/07/24 13:12:14;;;;;;;107.55;102.25;;;;;;;;;;5048415;28;20044;-72
2022/07/24 13:14:39;;;;;;;97.22;92.43;;;;;;;;;;5046748;28;20371;-70
2022/07/24 13:17:12;;;;;;;107.93;102.57;;;;;;;;;;5043660;28;20024;-73
2022/07/24 13:19:42;;;;;;;115.28;109.57;;;;;;;;;;5046474;28;20025;-72
2022/07/24 13:22:08;;;;;;;106.43;101.13;;;;;;;;;;5045070;28;20029;-71
2022/07/24 13:24:34;;;;;;;114.72;109.07;;;;;;;;;;5043055;28;20052;-71
2022/07/24 13:27:00;;;;;;;118.28;112.40;;;;;;;;;;5044403;28;20075;-71
2022/07/24 13:29:26;;;;;;;125.43;119.22;;;;;;;;;;5042037;28;20323;-71
2022/07/24 13:31:52;;;;;;;123.55;117.43;;;;;;;;;;5046917;28;20047;-72
2022/07/24 13:34:18;;;;;;;128.32;122.00;;;;;;;;;;5043905;28;20028;-73
2022/07/24 13:36:44;;;;;;;130.00;123.60;;;;;;;;;;5042637;28;20409;-73
2022/07/24 13:39:10;;;;;;;133.07;126.47;;;;;;;;;;5046471;28;20060;-72
2022/07/24 13:41:36;;;;;;;128.85;122.45;;;;;;;;;;5044169;28;20043;-72
2022/07/24 13:44:04;;;;;;;119.32;113.40;;;;;;;;;;5042323;28;20091;-72
2022/07/24 13:46:30;;;;;;;124.55;118.25;;;;;;;;;;5053657;28;20091;-72
2022/07/24 13:48:56;;;;;;;120.93;114.93;;;;;;;;;;5044988;28;20417;-70
2022/07/24 13:51:21;;;;;;;121.95;115.93;;;;;;;;;;5044351;28;20039;-72
2022/07/24 13:53:47;;;;;;;118.13;112.25;;;;;;;;;;5045065;28;20604;-73
2022/07/24 13:56:13;;;;;;;112.90;107.32;;;;;;;;;;5042196;28;20138;-71
2022/07/24 13:58:41;;;;;;;119.38;113.47;;;;;;;;;;5036836;28;20028;-72
2022/07/24 14:01:07;;;;;;;111.55;105.95;;;;;;;;;;5040730;28;20683;-72
2022/07/24 14:03:33;;;;;;;109.65;104.25;;;;;;;;;;5042362;28;20021;-71